createdAt,value
2023-01-30T00:00:18.358Z,0
2023-01-30T00:01:31.000Z,0
2023-01-30T00:02:50.749Z,0
2023-01-30T00:04:06.693Z,0
2023-01-30T00:05:23.133Z,0
2023-01-30T00:06:39.086Z,0
2023-01-30T00:07:55.533Z,0
2023-01-30T00:09:11.477Z,0
2023-01-30T00:10:27.674Z,0
2023-01-30T00:11:43.869Z,0
2023-01-30T00:12:57.000Z,0
2023-01-30T00:14:16.528Z,0
2023-01-30T00:15:32.460Z,0
2023-01-30T00:16:47.671Z,0
2023-01-30T00:18:01.000Z,0
2023-01-30T00:19:20.064Z,0
2023-01-30T00:20:33.000Z,0
2023-01-30T00:21:49.000Z,0
2023-01-30T00:23:08.896Z,0
2023-01-30T00:25:19.279Z,0
2023-01-30T00:25:41.299Z,0
2023-01-30T00:26:54.000Z,0
2023-01-30T00:28:13.702Z,0
2023-01-30T00:29:26.000Z,0
2023-01-30T00:30:42.000Z,0
2023-01-30T00:31:59.000Z,0
2023-01-30T00:33:17.241Z,0
2023-01-30T00:34:33.437Z,0
2023-01-30T00:35:46.000Z,0
2023-01-30T00:37:05.829Z,0
2023-01-30T00:38:22.026Z,0
2023-01-30T00:39:35.000Z,0
2023-01-30T00:40:54.417Z,0
2023-01-30T00:42:10.861Z,0
2023-01-30T00:43:27.051Z,0
2023-01-30T00:44:43.005Z,0
2023-01-30T00:45:59.201Z,0
2023-01-30T00:47:15.396Z,0
2023-01-30T00:48:32.890Z,0
2023-01-30T00:49:46.805Z,0
2023-01-30T00:51:03.002Z,0
2023-01-30T00:52:16.000Z,0
2023-01-30T00:53:35.394Z,0
2023-01-30T00:54:51.835Z,0
2023-01-30T00:56:04.000Z,0
2023-01-30T00:57:21.000Z,0
2023-01-30T00:58:37.000Z,0
2023-01-30T00:59:53.000Z,0
2023-01-30T01:01:12.813Z,0
2023-01-30T01:02:28.767Z,0
2023-01-30T01:03:44.964Z,0
2023-01-30T01:04:58.000Z,0
2023-01-30T01:06:16.373Z,0
2023-01-30T01:07:32.815Z,0
2023-01-30T01:08:49.015Z,0
2023-01-30T01:10:04.962Z,0
2023-01-30T01:11:21.403Z,0
2023-01-30T01:12:37.354Z,0
2023-01-30T01:13:53.794Z,0
2023-01-30T01:15:07.000Z,0
2023-01-30T01:15:09.747Z,0
2023-01-30T01:16:25.943Z,0
2023-01-30T01:17:39.000Z,0
2023-01-30T01:18:58.336Z,0
2023-01-30T01:21:27.000Z,0
2023-01-30T01:22:45.940Z,0
2023-01-30T01:24:02.388Z,0
2023-01-30T01:25:15.000Z,0
2023-01-30T01:26:34.774Z,0
2023-01-30T01:27:47.000Z,0
2023-01-30T01:29:07.168Z,0
2023-01-30T01:30:23.358Z,0
2023-01-30T01:31:39.557Z,0
2023-01-30T01:32:52.000Z,0
2023-01-30T01:34:08.000Z,0
2023-01-30T01:35:28.154Z,0
2023-01-30T01:36:41.000Z,0
2023-01-30T01:38:00.293Z,0
2023-01-30T01:39:15.506Z,0
2023-01-30T01:40:31.702Z,0
2023-01-30T01:41:45.000Z,0
2023-01-30T01:43:04.094Z,0
2023-01-30T01:44:17.000Z,0
2023-01-30T01:45:36.487Z,0
2023-01-30T01:46:52.932Z,0
2023-01-30T01:48:06.000Z,0
2023-01-30T01:49:22.000Z,0
2023-01-30T01:50:38.000Z,0
2023-01-30T01:51:54.000Z,0
2023-01-30T01:53:13.666Z,0
2023-01-30T01:54:27.000Z,0
2023-01-30T01:55:42.000Z,0
2023-01-30T01:56:58.000Z,0
2023-01-30T01:58:14.000Z,0
2023-01-30T01:59:30.000Z,0
2023-01-30T02:00:49.858Z,0
2023-01-30T02:02:03.000Z,0
2023-01-30T02:03:22.250Z,0
2023-01-30T02:04:38.696Z,0
2023-01-30T02:05:51.000Z,0
2023-01-30T02:07:11.092Z,0
2023-01-30T02:08:24.000Z,0
2023-01-30T02:09:43.548Z,0
2023-01-30T02:10:59.671Z,0
2023-01-30T02:12:14.641Z,0
2023-01-30T02:13:31.084Z,0
2023-01-30T02:14:47.033Z,0
2023-01-30T02:16:00.000Z,0
2023-01-30T02:16:01.000Z,0
2023-01-30T02:17:19.425Z,0
2023-01-30T02:18:35.622Z,0
2023-01-30T02:19:51.818Z,0
2023-01-30T02:22:21.000Z,0
2023-01-30T02:23:40.406Z,0
2023-01-30T02:24:56.857Z,0
2023-01-30T02:26:13.044Z,0
2023-01-30T02:27:26.000Z,0
2023-01-30T02:28:44.000Z,0
2023-01-30T02:30:00.404Z,0
2023-01-30T02:31:13.000Z,0
2023-01-30T02:32:33.045Z,0
2023-01-30T02:33:46.000Z,0
2023-01-30T02:35:05.190Z,0
2023-01-30T02:36:18.000Z,0
2023-01-30T02:37:34.000Z,0
2023-01-30T02:38:54.022Z,0
2023-01-30T02:40:09.966Z,0
2023-01-30T02:41:23.000Z,0
2023-01-30T02:42:42.603Z,0
2023-01-30T02:43:55.000Z,0
2023-01-30T02:45:14.005Z,0
2023-01-30T02:46:27.000Z,0
2023-01-30T02:47:43.000Z,0
2023-01-30T02:48:59.000Z,0
2023-01-30T02:50:15.000Z,0
2023-01-30T02:51:34.974Z,0
2023-01-30T02:52:47.000Z,0
2023-01-30T02:54:06.138Z,0
2023-01-30T02:55:22.332Z,0
2023-01-30T02:56:38.526Z,0
2023-01-30T02:57:54.961Z,0
2023-01-30T02:59:11.161Z,0
2023-01-30T03:00:24.000Z,0
2023-01-30T03:01:40.000Z,0
2023-01-30T03:02:56.000Z,0
2023-01-30T03:04:12.000Z,0
2023-01-30T03:05:29.000Z,0
2023-01-30T03:06:45.000Z,0
2023-01-30T03:08:04.539Z,0
2023-01-30T03:09:16.000Z,0
2023-01-30T03:10:35.925Z,0
2023-01-30T03:11:49.000Z,0
2023-01-30T03:13:05.000Z,0
2023-01-30T03:14:21.000Z,0
2023-01-30T03:15:40.453Z,0
2023-01-30T03:16:53.000Z,0
2023-01-30T03:18:13.090Z,0
2023-01-30T03:19:29.035Z,0
2023-01-30T03:20:45.229Z,0
2023-01-30T03:22:01.666Z,0
2023-01-30T03:23:14.000Z,0
2023-01-30T03:24:34.203Z,0
2023-01-30T03:25:49.262Z,0
2023-01-30T03:27:05.214Z,0
2023-01-30T03:28:18.000Z,0
2023-01-30T03:29:37.850Z,0
2023-01-30T03:30:53.796Z,0
2023-01-30T03:32:07.000Z,0
2023-01-30T03:33:23.000Z,0
2023-01-30T03:34:42.378Z,0
2023-01-30T03:35:55.000Z,0
2023-01-30T03:37:11.000Z,0
2023-01-30T03:38:28.000Z,0
2023-01-30T03:39:47.403Z,0
2023-01-30T03:41:03.348Z,0
2023-01-30T03:42:18.558Z,0
2023-01-30T03:43:31.000Z,0
2023-01-30T03:44:49.000Z,0
2023-01-30T03:44:51.195Z,0
2023-01-30T03:46:07.140Z,0
2023-01-30T03:47:20.000Z,0
2023-01-30T03:48:39.772Z,0
2023-01-30T03:51:09.000Z,0
2023-01-30T03:52:28.109Z,0
2023-01-30T03:53:44.573Z,0
2023-01-30T03:54:57.000Z,0
2023-01-30T03:56:13.000Z,0
2023-01-30T03:57:30.000Z,0
2023-01-30T03:58:49.327Z,0
2023-01-30T04:00:04.536Z,0
2023-01-30T04:01:17.000Z,0
2023-01-30T04:02:33.000Z,0
2023-01-30T04:03:53.124Z,0
2023-01-30T04:05:09.314Z,0
2023-01-30T04:06:22.000Z,0
2023-01-30T04:07:38.000Z,0
2023-01-30T04:08:54.000Z,0
2023-01-30T04:10:10.000Z,0
2023-01-30T04:11:30.285Z,0
2023-01-30T04:12:46.229Z,0
2023-01-30T04:13:59.000Z,0
2023-01-30T04:15:18.867Z,0
2023-01-30T04:16:30.000Z,0
2023-01-30T04:17:50.022Z,0
2023-01-30T04:19:03.000Z,0
2023-01-30T04:20:22.654Z,0
2023-01-30T04:21:38.862Z,0
2023-01-30T04:22:55.045Z,0
2023-01-30T04:24:08.000Z,0
2023-01-30T04:25:24.000Z,0
2023-01-30T04:26:40.000Z,0
2023-01-30T04:27:56.000Z,0
2023-01-30T04:29:12.000Z,0
2023-01-30T04:30:32.209Z,0
2023-01-30T04:31:45.000Z,0
2023-01-30T04:33:03.608Z,0
2023-01-30T04:34:19.803Z,0
2023-01-30T04:35:35.754Z,0
2023-01-30T04:36:49.084Z,0
2023-01-30T04:38:05.000Z,0
2023-01-30T04:39:21.000Z,0
2023-01-30T04:40:37.000Z,0
2023-01-30T04:41:53.000Z,0
2023-01-30T04:43:13.160Z,0
2023-01-30T04:44:26.000Z,0
2023-01-30T04:44:26.000Z,0
2023-01-30T04:45:42.000Z,0
2023-01-30T04:47:01.747Z,0
2023-01-30T04:48:17.693Z,0
2023-01-30T04:50:46.000Z,0
2023-01-30T04:52:02.000Z,0
2023-01-30T04:53:18.000Z,0
2023-01-30T04:54:34.000Z,0
2023-01-30T04:55:51.000Z,0
2023-01-30T04:57:10.066Z,0
2023-01-30T04:58:23.000Z,0
2023-01-30T04:59:39.000Z,0
2023-01-30T05:00:55.000Z,0
2023-01-30T05:02:11.000Z,0
2023-01-30T05:03:31.035Z,0
2023-01-30T05:04:47.477Z,0
2023-01-30T05:06:02.439Z,0
2023-01-30T05:07:15.000Z,0
2023-01-30T05:08:31.000Z,0
2023-01-30T05:09:48.000Z,0
2023-01-30T05:11:07.462Z,0
2023-01-30T05:12:23.659Z,0
2023-01-30T05:13:39.848Z,0
2023-01-30T05:14:56.051Z,0
2023-01-30T05:16:51.908Z,0
2023-01-30T05:17:25.000Z,0
2023-01-30T05:18:41.000Z,0
2023-01-30T05:20:00.816Z,0
2023-01-30T05:21:17.009Z,0
2023-01-30T05:22:32.220Z,0
2023-01-30T05:23:48.426Z,0
2023-01-30T05:25:01.000Z,0
2023-01-30T05:26:17.000Z,0
2023-01-30T05:27:36.998Z,0
2023-01-30T05:28:50.000Z,0
2023-01-30T05:30:06.000Z,0
2023-01-30T05:31:25.333Z,0
2023-01-30T05:32:41.817Z,0
2023-01-30T05:33:57.969Z,0
2023-01-30T05:35:14.166Z,0
2023-01-30T05:36:30.350Z,0
2023-01-30T05:37:46.555Z,0
2023-01-30T05:39:01.000Z,0
2023-01-30T05:40:17.959Z,0
2023-01-30T05:41:34.155Z,0
2023-01-30T05:42:50.353Z,0
2023-01-30T05:44:03.000Z,0
2023-01-30T05:45:19.000Z,0
2023-01-30T05:46:38.676Z,0
2023-01-30T05:47:52.000Z,0
2023-01-30T05:49:08.000Z,0
2023-01-30T05:50:27.501Z,4
2023-01-30T05:51:40.000Z,8
2023-01-30T05:52:59.644Z,8
2023-01-30T05:54:59.559Z,8
2023-01-30T05:55:31.048Z,8
2023-01-30T05:56:44.000Z,8
2023-01-30T05:56:45.000Z,8
2023-01-30T05:58:00.000Z,8
2023-01-30T05:59:16.000Z,8
2023-01-30T06:00:36.067Z,8
2023-01-30T06:03:08.211Z,8
2023-01-30T06:04:22.000Z,8
2023-01-30T06:04:24.404Z,8
2023-01-30T06:05:40.841Z,8
2023-01-30T06:07:21.446Z,8
2023-01-30T06:08:12.985Z,8
2023-01-30T06:10:45.621Z,8
2023-01-30T06:11:57.000Z,8
2023-01-30T06:13:17.018Z,8
2023-01-30T06:14:33.582Z,8
2023-01-30T06:15:49.164Z,8
2023-01-30T06:17:05.357Z,8
2023-01-30T06:18:21.552Z,8
2023-01-30T06:19:34.000Z,8
2023-01-30T06:20:53.940Z,8
2023-01-30T06:22:10.375Z,8
2023-01-30T06:23:26.327Z,8
2023-01-30T06:24:53.082Z,8
2023-01-30T06:25:55.000Z,8
2023-01-30T06:27:12.000Z,8
2023-01-30T06:28:30.362Z,8
2023-01-30T06:30:00.848Z,8
2023-01-30T06:31:02.507Z,8
2023-01-30T06:32:18.945Z,8
2023-01-30T06:33:32.000Z,8
2023-01-30T06:34:48.000Z,8
2023-01-30T06:36:07.525Z,8
2023-01-30T06:37:23.476Z,8
2023-01-30T06:38:39.670Z,8
2023-01-30T06:39:55.864Z,8
2023-01-30T06:41:12.300Z,8
2023-01-30T06:42:28.251Z,8
2023-01-30T06:43:44.689Z,8
2023-01-30T06:45:00.639Z,8
2023-01-30T06:46:12.000Z,8
2023-01-30T06:47:29.000Z,8
2023-01-30T06:48:48.236Z,8
2023-01-30T06:50:04.676Z,8
2023-01-30T06:51:20.878Z,8
2023-01-30T06:52:33.000Z,12
2023-01-30T06:53:53.013Z,12
2023-01-30T06:55:09.206Z,12
2023-01-30T06:56:22.000Z,12
2023-01-30T06:57:41.594Z,16
2023-01-30T06:58:58.033Z,16
2023-01-30T07:00:11.000Z,20
2023-01-30T07:01:30.176Z,24
2023-01-30T07:02:42.000Z,24
2023-01-30T07:03:58.000Z,28
2023-01-30T07:05:18.036Z,32
2023-01-30T07:06:34.223Z,32
2023-01-30T07:07:49.437Z,32
2023-01-30T07:09:05.635Z,36
2023-01-30T07:10:18.000Z,44
2023-01-30T07:11:34.000Z,52
2023-01-30T07:12:51.000Z,56
2023-01-30T07:14:07.000Z,60
2023-01-30T07:16:20.647Z,64
2023-01-30T07:16:39.000Z,80
2023-01-30T07:17:55.000Z,96
2023-01-30T07:19:14.927Z,96
2023-01-30T07:20:28.000Z,100
2023-01-30T07:21:47.561Z,96
2023-01-30T07:23:00.000Z,80
2023-01-30T07:24:18.719Z,88
2023-01-30T07:25:32.000Z,100
2023-01-30T07:26:48.000Z,124
2023-01-30T07:28:07.301Z,116
2023-01-30T07:29:20.000Z,128
2023-01-30T07:30:39.689Z,124
2023-01-30T07:31:55.882Z,132
2023-01-30T07:33:12.076Z,136
2023-01-30T07:34:28.270Z,136
2023-01-30T07:35:44.463Z,148
2023-01-30T07:37:00.906Z,156
2023-01-30T07:38:13.000Z,180
2023-01-30T07:39:33.044Z,184
2023-01-30T07:40:48.254Z,248
2023-01-30T07:42:04.693Z,252
2023-01-30T07:43:20.642Z,248
2023-01-30T07:44:36.835Z,296
2023-01-30T07:45:53.029Z,332
2023-01-30T07:47:09.489Z,352
2023-01-30T07:48:25.417Z,320
2023-01-30T07:49:41.611Z,308
2023-01-30T07:50:54.000Z,364
2023-01-30T07:52:14.239Z,348
2023-01-30T07:53:27.000Z,408
2023-01-30T07:54:46.386Z,424
2023-01-30T07:56:02.580Z,296
2023-01-30T07:57:18.038Z,340
2023-01-30T07:58:33.984Z,284
2023-01-30T07:59:50.423Z,256
2023-01-30T08:01:06.371Z,268
2023-01-30T08:02:19.000Z,260
2023-01-30T08:03:38.759Z,372
2023-01-30T08:04:52.000Z,360
2023-01-30T08:06:11.146Z,404
2023-01-30T08:07:24.000Z,444
2023-01-30T08:08:43.533Z,400
2023-01-30T08:09:59.727Z,488
2023-01-30T08:11:15.921Z,428
2023-01-30T08:12:29.000Z,552
2023-01-30T08:13:44.000Z,572
2023-01-30T08:15:03.518Z,440
2023-01-30T08:16:16.000Z,544
2023-01-30T08:17:35.905Z,440
2023-01-30T08:18:52.000Z,616
2023-01-30T08:20:08.294Z,1000
2023-01-30T08:21:24.764Z,1352
2023-01-30T08:22:40.934Z,1316
2023-01-30T08:23:56.875Z,1132
2023-01-30T08:25:13.068Z,1260
2023-01-30T08:26:26.000Z,816
2023-01-30T08:27:42.000Z,660
2023-01-30T08:29:01.649Z,388
2023-01-30T08:30:13.000Z,640
2023-01-30T08:31:33.000Z,680
2023-01-30T08:32:46.000Z,1168
2023-01-30T08:34:05.441Z,1468
2023-01-30T08:35:21.635Z,1620
2023-01-30T08:36:37.829Z,1928
2023-01-30T08:37:54.274Z,2368
2023-01-30T08:39:10.216Z,2256
2023-01-30T08:40:26.661Z,2040
2023-01-30T08:41:42.603Z,1740
2023-01-30T08:42:55.000Z,2248
2023-01-30T08:44:56.831Z,2272
2023-01-30T08:45:31.439Z,2664
2023-01-30T08:46:46.394Z,2672
2023-01-30T08:48:02.837Z,1928
2023-01-30T08:49:18.000Z,2972
2023-01-30T08:50:34.976Z,2860
2023-01-30T08:51:48.000Z,3160
2023-01-30T08:53:07.607Z,4100
2023-01-30T08:54:20.000Z,3768
2023-01-30T08:55:39.751Z,2816
2023-01-30T08:56:55.945Z,3196
2023-01-30T08:58:12.139Z,3140
2023-01-30T08:59:28.333Z,2568
2023-01-30T09:00:44.776Z,2276
2023-01-30T09:02:00.720Z,1984
2023-01-30T09:03:15.930Z,1740
2023-01-30T09:04:32.125Z,1732
2023-01-30T09:05:48.318Z,1728
2023-01-30T09:07:01.000Z,1748
2023-01-30T09:08:20.947Z,1792
2023-01-30T09:09:36.000Z,1844
2023-01-30T09:10:53.336Z,1928
2023-01-30T09:12:06.000Z,2000
2023-01-30T09:13:25.480Z,2096
2023-01-30T09:14:41.918Z,2096
2023-01-30T09:15:57.867Z,2100
2023-01-30T09:17:55.730Z,2108
2023-01-30T09:18:27.000Z,2096
2023-01-30T09:19:46.448Z,2104
2023-01-30T09:20:58.000Z,2104
2023-01-30T09:22:17.000Z,2100
2023-01-30T09:23:34.292Z,2104
2023-01-30T09:25:07.866Z,2100
2023-01-30T09:26:06.682Z,2112
2023-01-30T09:27:22.627Z,2112
2023-01-30T09:28:39.076Z,2128
2023-01-30T09:29:55.015Z,2116
2023-01-30T09:31:11.208Z,2120
2023-01-30T09:32:27.402Z,2136
2023-01-30T09:33:43.865Z,2152
2023-01-30T09:35:26.364Z,2216
2023-01-30T09:36:15.984Z,2172
2023-01-30T09:37:31.194Z,2200
2023-01-30T09:40:01.000Z,2236
2023-01-30T09:40:03.582Z,2180
2023-01-30T09:41:20.038Z,2060
2023-01-30T09:42:35.970Z,2008
2023-01-30T09:43:52.163Z,2276
2023-01-30T09:46:21.000Z,2092
2023-01-30T09:47:40.000Z,2204
2023-01-30T09:48:56.938Z,2228
2023-01-30T09:50:13.132Z,2236
2023-01-30T09:51:29.325Z,2188
2023-01-30T09:52:42.000Z,2220
2023-01-30T09:54:01.005Z,2228
2023-01-30T09:56:00.393Z,2236
2023-01-30T09:56:33.116Z,2248
2023-01-30T09:57:49.559Z,2252
2023-01-30T09:59:05.504Z,2252
2023-01-30T10:00:21.000Z,2260
2023-01-30T10:01:38.141Z,2256
2023-01-30T10:02:54.085Z,2264
2023-01-30T10:04:10.279Z,2256
2023-01-30T10:05:23.000Z,2404
2023-01-30T10:05:26.473Z,2264
2023-01-30T10:06:39.000Z,2276
2023-01-30T10:07:58.860Z,2280
2023-01-30T10:09:15.309Z,2420
2023-01-30T10:11:46.458Z,2464
2023-01-30T10:13:32.029Z,2424
2023-01-30T10:14:18.845Z,2512
2023-01-30T10:15:32.000Z,2652
2023-01-30T10:16:51.478Z,2644
2023-01-30T10:18:07.427Z,2412
2023-01-30T10:19:23.620Z,2788
2023-01-30T10:20:39.814Z,3068
2023-01-30T10:21:53.000Z,3720
2023-01-30T10:23:12.201Z,2772
2023-01-30T10:24:28.652Z,3888
2023-01-30T10:25:44.589Z,3276
2023-01-30T10:26:59.799Z,4732
2023-01-30T10:28:15.000Z,4884
2023-01-30T10:30:06.707Z,5540
2023-01-30T10:30:45.000Z,3112
2023-01-30T10:32:04.574Z,3872
2023-01-30T10:33:17.000Z,3084
2023-01-30T10:34:37.215Z,2652
2023-01-30T10:35:50.000Z,2596
2023-01-30T10:37:20.828Z,2880
2023-01-30T10:38:53.016Z,2680
2023-01-30T10:39:41.979Z,2756
2023-01-30T10:40:57.929Z,2868
2023-01-30T10:42:30.577Z,4056
2023-01-30T10:43:27.000Z,3252
2023-01-30T10:44:00.782Z,6904
2023-01-30T10:44:42.000Z,7060
2023-01-30T10:44:43.000Z,3088
2023-01-30T10:46:01.721Z,7912
2023-01-30T10:47:18.165Z,7560
2023-01-30T10:51:03.000Z,4012
2023-01-30T10:52:22.932Z,3212
2023-01-30T10:53:35.000Z,2940
2023-01-30T10:54:55.341Z,4504
2023-01-30T10:56:24.650Z,4064
2023-01-30T10:57:27.464Z,4344
2023-01-30T10:58:43.909Z,3872
2023-01-30T10:59:59.112Z,4316
2023-01-30T11:01:15.061Z,3944
2023-01-30T11:02:31.254Z,3072
2023-01-30T11:04:36.792Z,3408
2023-01-30T11:05:03.892Z,4364
2023-01-30T11:06:19.837Z,7548
2023-01-30T11:07:33.000Z,5720
2023-01-30T11:08:49.000Z,4984
2023-01-30T11:10:08.417Z,5364
2023-01-30T11:11:50.914Z,5412
2023-01-30T11:12:40.805Z,3448
2023-01-30T11:13:54.000Z,5036
2023-01-30T11:15:13.441Z,6388
2023-01-30T11:17:00.663Z,8540
2023-01-30T11:19:03.051Z,4824
2023-01-30T11:21:30.000Z,5744
2023-01-30T11:22:45.000Z,5580
2023-01-30T11:24:01.000Z,5620
2023-01-30T11:25:21.031Z,5716
2023-01-30T11:26:34.000Z,6684
2023-01-30T11:27:50.000Z,5588
2023-01-30T11:29:20.572Z,4740
2023-01-30T11:30:23.000Z,4268
2023-01-30T11:30:25.804Z,5488
2023-01-30T11:31:41.750Z,4864
2023-01-30T11:32:57.943Z,4752
2023-01-30T11:34:14.137Z,4616
2023-01-30T11:36:46.957Z,4352
2023-01-30T11:37:59.000Z,5528
2023-01-30T11:39:16.000Z,5588
2023-01-30T11:40:32.000Z,6084
2023-01-30T11:42:42.462Z,5732
2023-01-30T11:43:06.510Z,5768
2023-01-30T11:44:46.834Z,4560
2023-01-30T11:45:39.140Z,4548
2023-01-30T11:46:55.334Z,4416
2023-01-30T11:48:11.540Z,3764
2023-01-30T11:49:24.000Z,3056
2023-01-30T11:50:40.000Z,4020
2023-01-30T11:51:59.866Z,5500
2023-01-30T11:53:16.059Z,5292
2023-01-30T11:55:06.332Z,3256
2023-01-30T11:55:48.692Z,3888
2023-01-30T11:57:01.000Z,5328
2023-01-30T11:58:20.834Z,4728
2023-01-30T11:59:33.000Z,3612
2023-01-30T11:59:33.000Z,4768
2023-01-30T12:00:49.000Z,4644
2023-01-30T12:02:18.469Z,5064
2023-01-30T12:03:24.875Z,5544
2023-01-30T12:05:57.259Z,4352
2023-01-30T12:07:28.216Z,4656
2023-01-30T12:08:29.401Z,4908
2023-01-30T12:10:32.595Z,5244
2023-01-30T12:11:01.791Z,5828
2023-01-30T12:12:18.233Z,6236
2023-01-30T12:13:34.180Z,5868
2023-01-30T12:15:42.348Z,5408
2023-01-30T12:16:02.000Z,5324
2023-01-30T12:17:22.030Z,5620
2023-01-30T12:18:37.978Z,6196
2023-01-30T12:20:50.121Z,7136
2023-01-30T12:21:10.367Z,6304
2023-01-30T12:22:26.808Z,6076
2023-01-30T12:23:42.759Z,6488
2023-01-30T12:24:56.000Z,4988
2023-01-30T12:24:59.201Z,6172
2023-01-30T12:26:15.413Z,4028
2023-01-30T12:27:31.343Z,4472
2023-01-30T12:28:47.797Z,5600
2023-01-30T12:31:17.000Z,4704
2023-01-30T12:32:32.000Z,4540
2023-01-30T12:33:51.586Z,2800
2023-01-30T12:35:07.779Z,3784
2023-01-30T12:36:20.000Z,4320
2023-01-30T12:38:20.778Z,4592
2023-01-30T12:38:56.119Z,2856
2023-01-30T12:40:09.000Z,4016
2023-01-30T12:41:28.761Z,4664
2023-01-30T12:42:41.000Z,3664
2023-01-30T12:43:57.000Z,4120
2023-01-30T12:45:35.910Z,3960
2023-01-30T12:46:30.000Z,3668
2023-01-30T12:48:40.290Z,3852
2023-01-30T12:49:04.700Z,3692
2023-01-30T12:50:21.142Z,2780
2023-01-30T12:51:34.000Z,2624
2023-01-30T12:53:48.062Z,3308
2023-01-30T12:54:06.000Z,3392
2023-01-30T12:55:25.925Z,3192
2023-01-30T12:56:42.126Z,2824
2023-01-30T12:57:58.310Z,2668
2023-01-30T12:59:14.510Z,2936
2023-01-30T13:01:02.195Z,2544
2023-01-30T13:01:46.656Z,2780
2023-01-30T13:03:06.565Z,2952
2023-01-30T13:04:19.295Z,3312
2023-01-30T13:05:35.242Z,2388
2023-01-30T13:06:50.703Z,2012
2023-01-30T13:08:03.000Z,2404
2023-01-30T13:09:19.000Z,2380
2023-01-30T13:11:18.718Z,2316
2023-01-30T13:11:55.236Z,2660
2023-01-30T13:13:11.432Z,3628
2023-01-30T13:14:27.628Z,4820
2023-01-30T13:15:40.000Z,4528
2023-01-30T13:17:00.019Z,3844
2023-01-30T13:18:13.000Z,3964
2023-01-30T13:19:32.410Z,4632
2023-01-30T13:20:48.851Z,5040
2023-01-30T13:22:05.065Z,4700
2023-01-30T13:23:40.623Z,4720
2023-01-30T13:24:33.000Z,4212
2023-01-30T13:25:52.404Z,3952
2023-01-30T13:27:08.600Z,4652
2023-01-30T13:28:24.796Z,5140
2023-01-30T13:29:38.000Z,4488
2023-01-30T13:30:57.187Z,5100
2023-01-30T13:32:27.946Z,4964
2023-01-30T13:33:29.819Z,4568
2023-01-30T13:34:45.774Z,5052
2023-01-30T13:35:59.000Z,5568
2023-01-30T13:37:18.412Z,5116
2023-01-30T13:38:34.361Z,4908
2023-01-30T13:39:47.000Z,4500
2023-01-30T13:41:12.285Z,5448
2023-01-30T13:42:21.964Z,4544
2023-01-30T13:43:35.000Z,4940
2023-01-30T13:44:54.620Z,4252
2023-01-30T13:46:10.803Z,4896
2023-01-30T13:47:26.747Z,5000
2023-01-30T13:49:26.423Z,3900
2023-01-30T13:49:59.138Z,3864
2023-01-30T13:51:15.582Z,4104
2023-01-30T13:52:31.530Z,4272
2023-01-30T13:53:44.000Z,4092
2023-01-30T13:55:04.176Z,3940
2023-01-30T13:56:17.000Z,3336
2023-01-30T13:57:35.328Z,3116
2023-01-30T13:58:48.000Z,2824
2023-01-30T14:00:04.000Z,2404
2023-01-30T14:01:21.000Z,2312
2023-01-30T14:02:40.110Z,2356
2023-01-30T14:03:53.000Z,3184
2023-01-30T14:05:12.501Z,3648
2023-01-30T14:06:25.000Z,3492
2023-01-30T14:07:44.893Z,3380
2023-01-30T14:08:58.000Z,3524
2023-01-30T14:10:17.545Z,3128
2023-01-30T14:14:12.211Z,2936
2023-01-30T14:19:08.000Z,3136
2023-01-30T14:22:59.240Z,3876
2023-01-30T14:25:30.659Z,2920
2023-01-30T14:26:42.000Z,2764
2023-01-30T14:28:02.066Z,3236
2023-01-30T14:29:14.000Z,3396
2023-01-30T14:30:32.500Z,2832
2023-01-30T14:31:44.000Z,3092
2023-01-30T14:33:00.000Z,3372
2023-01-30T14:34:18.155Z,3340
2023-01-30T14:35:33.625Z,3028
2023-01-30T14:36:49.811Z,3012
2023-01-30T14:38:02.000Z,2812
2023-01-30T14:39:19.000Z,2940
2023-01-30T14:40:35.000Z,3496
2023-01-30T14:41:54.344Z,3112
2023-01-30T14:43:10.540Z,2316
2023-01-30T14:44:26.735Z,2120
2023-01-30T14:45:43.176Z,2512
2023-01-30T14:46:56.000Z,2956
2023-01-30T14:48:11.000Z,2808
2023-01-30T14:49:26.000Z,2908
2023-01-30T14:50:45.757Z,2928
2023-01-30T14:52:02.200Z,2120
2023-01-30T14:53:15.000Z,2116
2023-01-30T14:54:34.595Z,2284
2023-01-30T14:55:47.000Z,2060
2023-01-30T14:57:06.735Z,2420
2023-01-30T14:58:22.931Z,2308
2023-01-30T14:59:39.126Z,2148
2023-01-30T15:00:55.323Z,2432
2023-01-30T15:02:08.000Z,2600
2023-01-30T15:03:24.000Z,1716
2023-01-30T15:04:43.909Z,1568
2023-01-30T15:05:59.121Z,1616
2023-01-30T15:07:12.000Z,1684
2023-01-30T15:08:31.513Z,1388
2023-01-30T15:09:44.000Z,1416
2023-01-30T15:11:03.904Z,1428
2023-01-30T15:12:17.000Z,1436
2023-01-30T15:13:36.596Z,1472
2023-01-30T15:14:49.000Z,1504
2023-01-30T15:16:04.000Z,1620
2023-01-30T15:17:22.925Z,1672
2023-01-30T15:18:38.147Z,1776
2023-01-30T15:19:53.358Z,1780
2023-01-30T15:21:09.803Z,1644
2023-01-30T15:22:22.000Z,1680
2023-01-30T15:23:42.191Z,1760
2023-01-30T15:24:55.000Z,1960
2023-01-30T15:26:11.000Z,1884
2023-01-30T15:27:27.000Z,1792
2023-01-30T15:28:46.728Z,1584
2023-01-30T15:30:00.000Z,1520
2023-01-30T15:31:19.369Z,1640
2023-01-30T15:32:35.315Z,1600
2023-01-30T15:33:51.511Z,1516
2023-01-30T15:35:04.000Z,1376
2023-01-30T15:36:19.000Z,1328
2023-01-30T15:37:38.135Z,1268
2023-01-30T15:38:54.331Z,1256
2023-01-30T15:40:07.000Z,1204
2023-01-30T15:41:23.000Z,1188
2023-01-30T15:42:42.918Z,1072
2023-01-30T15:43:59.367Z,1100
2023-01-30T15:45:29.200Z,1052
2023-01-30T15:46:26.000Z,1020
2023-01-30T15:47:42.000Z,908
2023-01-30T15:49:01.210Z,836
2023-01-30T15:50:33.016Z,812
2023-01-30T15:51:32.624Z,724
2023-01-30T15:52:48.569Z,608
2023-01-30T15:54:04.765Z,516
2023-01-30T15:55:41.774Z,484
2023-01-30T15:56:34.000Z,516
2023-01-30T15:57:50.000Z,584
2023-01-30T15:59:09.547Z,612
2023-01-30T16:00:25.743Z,580
2023-01-30T16:01:41.939Z,488
2023-01-30T16:02:55.000Z,436
2023-01-30T16:04:14.578Z,408
2023-01-30T16:05:30.771Z,360
2023-01-30T16:06:42.000Z,332
2023-01-30T16:07:59.000Z,304
2023-01-30T16:09:18.129Z,296
2023-01-30T16:11:09.059Z,300
2023-01-30T16:11:47.000Z,288
2023-01-30T16:13:02.000Z,184
2023-01-30T16:13:06.716Z,260
2023-01-30T16:14:22.912Z,248
2023-01-30T16:15:35.000Z,216
2023-01-30T16:16:53.586Z,204
2023-01-30T16:19:25.987Z,164
2023-01-30T16:20:40.958Z,144
2023-01-30T16:21:56.410Z,132
2023-01-30T16:23:12.365Z,124
2023-01-30T16:24:25.000Z,112
2023-01-30T16:25:41.000Z,100
2023-01-30T16:27:01.198Z,92
2023-01-30T16:28:14.000Z,84
2023-01-30T16:29:30.000Z,72
2023-01-30T16:30:46.000Z,60
2023-01-30T16:32:05.735Z,56
2023-01-30T16:33:21.931Z,48
2023-01-30T16:34:35.000Z,40
2023-01-30T16:35:54.322Z,32
2023-01-30T16:37:10.790Z,32
2023-01-30T16:38:25.729Z,24
2023-01-30T16:39:38.000Z,24
2023-01-30T16:40:58.121Z,20
2023-01-30T16:42:28.885Z,12
2023-01-30T16:43:30.512Z,8
2023-01-30T16:44:46.708Z,8
2023-01-30T16:46:02.904Z,4
2023-01-30T16:47:18.127Z,8
2023-01-30T16:48:33.588Z,4
2023-01-30T16:49:49.794Z,4
2023-01-30T16:51:02.000Z,4
2023-01-30T16:52:18.000Z,0
2023-01-30T16:53:35.000Z,4
2023-01-30T16:54:51.000Z,0
2023-01-30T16:56:10.512Z,0
2023-01-30T16:57:26.955Z,0
2023-01-30T16:59:25.387Z,0
2023-01-30T16:59:59.349Z,0
2023-01-30T17:01:15.295Z,0
2023-01-30T17:02:31.492Z,0
2023-01-30T17:03:44.000Z,0
2023-01-30T17:03:44.000Z,0
2023-01-30T17:04:59.000Z,0
2023-01-30T17:06:38.538Z,0
2023-01-30T17:07:35.293Z,0
2023-01-30T17:10:07.928Z,0
2023-01-30T17:11:20.000Z,0
2023-01-30T17:12:40.323Z,0
2023-01-30T17:13:53.000Z,0
2023-01-30T17:15:11.741Z,0
2023-01-30T17:16:26.960Z,0
2023-01-30T17:17:37.000Z,0
2023-01-30T17:17:38.000Z,0
2023-01-30T17:18:58.124Z,0
2023-01-30T17:20:10.000Z,0
2023-01-30T17:21:28.810Z,0
2023-01-30T17:22:42.000Z,0
2023-01-30T17:24:01.194Z,0
2023-01-30T17:25:17.390Z,0
2023-01-30T17:26:33.590Z,0
2023-01-30T17:29:05.734Z,0
2023-01-30T17:30:22.187Z,0
2023-01-30T17:31:35.000Z,0
2023-01-30T17:32:54.567Z,0
2023-01-30T17:34:07.000Z,0
2023-01-30T17:35:26.715Z,0
2023-01-30T17:37:25.196Z,0
2023-01-30T17:37:55.000Z,0
2023-01-30T17:39:14.319Z,0
2023-01-30T17:40:27.000Z,0
2023-01-30T17:41:43.000Z,0
2023-01-30T17:41:43.000Z,8
2023-01-30T17:43:03.163Z,4
2023-01-30T17:44:16.000Z,8
2023-01-30T17:45:35.550Z,8
2023-01-30T17:48:05.978Z,8
2023-01-30T17:49:18.000Z,8
2023-01-30T17:50:34.000Z,8
2023-01-30T17:52:44.571Z,8
2023-01-30T17:53:08.561Z,8
2023-01-30T17:54:21.000Z,8
2023-01-30T17:55:41.205Z,8
2023-01-30T17:56:54.000Z,8
2023-01-30T17:58:10.000Z,8
2023-01-30T17:59:29.540Z,8
2023-01-30T18:00:42.000Z,8
2023-01-30T18:01:58.000Z,8